createdAt,value
2018-02-11T00:01:10.708Z,98.10
2018-02-11T00:03:38.213Z,98.00
2018-02-11T00:06:06.464Z,98.10
2018-02-11T00:08:33.948Z,98.10
2018-02-11T00:11:02.246Z,98.00
2018-02-11T00:13:29.729Z,98.00
2018-02-11T00:15:57.245Z,98.10
2018-02-11T00:18:25.497Z,98.20
2018-02-11T00:20:53.010Z,98.20
2018-02-11T00:23:20.493Z,98.20
2018-02-11T00:25:47.980Z,98.30
2018-02-11T00:28:15.490Z,98.30
2018-02-11T00:30:42.976Z,98.30
2018-02-11T00:33:10.489Z,98.30
2018-02-11T00:35:37.978Z,98.30
2018-02-11T00:38:09.476Z,98.40
2018-02-11T00:40:37.748Z,98.50
2018-02-11T00:43:06.001Z,98.50
2018-02-11T00:45:33.508Z,98.50
2018-02-11T00:48:00.993Z,98.50
2018-02-11T00:50:28.472Z,98.60
2018-02-11T00:52:55.980Z,98.60
2018-02-11T00:55:23.464Z,98.70
2018-02-11T00:57:50.973Z,98.70
2018-02-11T01:00:19.220Z,98.70
2018-02-11T01:02:46.704Z,98.70
2018-02-11T01:05:14.212Z,98.80
2018-02-11T01:07:41.697Z,98.90
2018-02-11T01:10:09.204Z,98.90
2018-02-11T01:12:36.693Z,98.90
2018-02-11T01:15:04.180Z,98.90
2018-02-11T01:17:31.688Z,98.90
2018-02-11T01:19:59.177Z,99.00
2018-02-11T01:22:26.680Z,99.00
2018-02-11T01:24:54.937Z,98.80
2018-02-11T01:27:22.425Z,98.80
2018-02-11T01:29:49.932Z,98.70
2018-02-11T01:32:17.425Z,98.70
2018-02-11T01:34:45.705Z,98.70
2018-02-11T01:37:13.952Z,98.60
2018-02-11T01:39:41.436Z,98.60
2018-02-11T01:42:09.709Z,98.60
2018-02-11T01:44:37.961Z,98.60
2018-02-11T01:47:05.470Z,98.50
2018-02-11T01:49:32.952Z,98.60
2018-02-11T01:52:00.441Z,98.50
2018-02-11T01:54:27.953Z,98.50
2018-02-11T01:56:55.436Z,98.40
2018-02-11T01:59:22.944Z,98.50
2018-02-11T02:01:51.201Z,98.30
2018-02-11T02:04:18.689Z,98.30
2018-02-11T02:06:46.197Z,98.20
2018-02-11T02:09:13.683Z,98.10
2018-02-11T02:11:41.956Z,98.30
2018-02-11T02:14:09.445Z,98.20
2018-02-11T02:16:36.933Z,98.20
2018-02-11T02:19:04.445Z,98.20
2018-02-11T02:21:32.697Z,97.80
2018-02-11T02:24:00.204Z,97.80
2018-02-11T02:26:27.692Z,97.80
2018-02-11T02:28:55.176Z,97.80
2018-02-11T02:31:22.690Z,97.90
2018-02-11T02:33:50.185Z,97.90
2018-02-11T02:36:17.698Z,98.00
2018-02-11T02:38:45.185Z,98.00
2018-02-11T02:41:12.697Z,97.90
2018-02-11T02:43:40.198Z,98.00
2018-02-11T02:46:07.687Z,97.80
2018-02-11T02:48:35.197Z,97.90
2018-02-11T02:51:02.680Z,97.80
2018-02-11T02:53:30.193Z,97.80
2018-02-11T02:55:57.681Z,97.80
2018-02-11T02:58:25.185Z,97.90
2018-02-11T03:00:53.437Z,97.90
2018-02-11T03:03:20.916Z,97.80
2018-02-11T03:05:49.189Z,97.80
2018-02-11T03:08:17.436Z,97.50
2018-02-11T03:10:44.941Z,97.80
2018-02-11T03:13:12.433Z,97.80
2018-02-11T03:15:39.946Z,97.80
2018-02-11T03:18:08.209Z,97.80
2018-02-11T03:20:37.207Z,97.80
2018-02-11T03:23:04.719Z,97.80
2018-02-11T03:25:32.209Z,97.90
2018-02-11T03:27:59.726Z,97.90
2018-02-11T03:30:27.223Z,97.90
2018-02-11T03:32:54.737Z,98.00
2018-02-11T03:35:22.225Z,97.90
2018-02-11T03:37:49.713Z,97.80
2018-02-11T03:40:17.226Z,97.80
2018-02-11T03:42:44.719Z,97.80
2018-02-11T03:45:15.234Z,97.80
2018-02-11T03:47:42.721Z,97.90
2018-02-11T03:50:10.999Z,97.90
2018-02-11T03:52:39.255Z,97.90
2018-02-11T03:55:06.750Z,97.90
2018-02-11T03:57:34.266Z,97.90
2018-02-11T04:00:01.761Z,97.90
2018-02-11T04:02:30.038Z,98.10
2018-02-11T04:04:58.297Z,98.10
2018-02-11T04:07:25.814Z,98.10
2018-02-11T04:09:53.303Z,98.10
2018-02-11T04:12:22.306Z,98.30
2018-02-11T04:14:49.817Z,98.30
2018-02-11T04:17:17.309Z,98.40
2018-02-11T04:19:44.827Z,98.50
2018-02-11T04:22:12.322Z,98.70
2018-02-11T04:24:39.842Z,99.10
2018-02-11T04:27:07.351Z,98.80
2018-02-11T04:29:35.613Z,98.90
2018-02-11T04:32:03.129Z,98.80
2018-02-11T04:34:30.621Z,98.90
2018-02-11T04:36:58.138Z,98.90
2018-02-11T04:39:25.633Z,98.90
2018-02-11T04:41:53.145Z,98.90
2018-02-11T04:44:20.638Z,98.90
2018-02-11T04:46:48.138Z,98.90
2018-02-11T04:49:15.654Z,98.90
2018-02-11T04:51:43.149Z,98.90
2018-02-11T04:54:11.434Z,98.90
2018-02-11T04:56:38.926Z,98.80
2018-02-11T04:59:06.442Z,98.90
2018-02-11T05:01:33.938Z,98.90
2018-02-11T05:04:01.430Z,98.90
2018-02-11T05:06:28.945Z,99.00
2018-02-11T05:08:57.247Z,98.90
2018-02-11T05:11:24.761Z,98.90
2018-02-11T05:13:53.021Z,98.60
2018-02-11T05:16:20.537Z,98.90
2018-02-11T05:18:48.034Z,98.90
2018-02-11T05:21:15.529Z,98.90
2018-02-11T05:23:43.805Z,98.90
2018-02-11T05:26:12.061Z,98.80
2018-02-11T05:28:39.578Z,98.80
2018-02-11T05:31:07.074Z,99.10
2018-02-11T05:33:34.590Z,98.80
2018-02-11T05:36:02.076Z,98.80
2018-02-11T05:38:29.569Z,98.70
2018-02-11T05:40:57.844Z,98.70
2018-02-11T05:43:26.102Z,98.70
2018-02-11T05:45:53.618Z,98.60
2018-02-11T05:48:21.114Z,98.60
2018-02-11T05:50:48.634Z,98.30
2018-02-11T05:53:16.130Z,98.30
2018-02-11T05:55:43.621Z,98.20
2018-02-11T05:58:11.143Z,98.10
2018-02-11T06:00:38.638Z,98.10
2018-02-11T06:03:06.149Z,98.10
2018-02-11T06:05:33.642Z,98.10
2018-02-11T06:08:01.920Z,98.10
2018-02-11T06:10:30.176Z,98.10
2018-02-11T06:12:57.672Z,98.00
2018-02-11T06:15:25.181Z,98.00
2018-02-11T06:17:52.670Z,97.90
2018-02-11T06:20:20.958Z,97.90
2018-02-11T06:22:48.450Z,97.90
2018-02-11T06:25:15.965Z,97.60
2018-02-11T06:27:44.226Z,97.20
2018-02-11T06:30:11.717Z,97.20
2018-02-11T06:32:39.230Z,97.00
2018-02-11T06:35:07.489Z,96.70
2018-02-11T06:37:35.001Z,96.70
2018-02-11T06:40:02.490Z,96.60
2018-02-11T06:42:30.007Z,96.40
2018-02-11T06:44:58.271Z,96.30
2018-02-11T06:47:26.534Z,96.30
2018-02-11T06:49:54.054Z,96.20
2018-02-11T06:52:21.541Z,96.30
2018-02-11T06:54:49.054Z,96.30
2018-02-11T06:57:16.546Z,96.00
2018-02-11T06:59:44.929Z,96.00
2018-02-11T07:02:12.417Z,95.90
2018-02-11T07:04:39.906Z,95.80
2018-02-11T07:07:07.423Z,95.50
2018-02-11T07:09:34.917Z,95.70
2018-02-11T07:12:02.429Z,95.70
2018-02-11T07:14:29.924Z,95.60
2018-02-11T07:16:58.202Z,95.50
2018-02-11T07:19:26.453Z,95.30
2018-02-11T07:21:53.941Z,95.30
2018-02-11T07:24:21.453Z,95.10
2018-02-11T07:26:48.941Z,95.10
2018-02-11T07:29:17.226Z,95.20
2018-02-11T07:31:45.488Z,95.40
2018-02-11T07:34:13.761Z,95.60
2018-02-11T07:36:41.255Z,95.50
2018-02-11T07:39:08.750Z,95.40
2018-02-11T07:41:36.266Z,95.10
2018-02-11T07:44:03.771Z,95.50
2018-02-11T07:46:31.290Z,95.10
2018-02-11T07:48:58.778Z,95.10
2018-02-11T07:51:26.293Z,95.00
2018-02-11T07:53:53.786Z,95.10
2018-02-11T07:56:21.278Z,95.20
2018-02-11T07:58:48.792Z,95.30
2018-02-11T08:01:16.285Z,95.30
2018-02-11T08:03:43.816Z,95.40
2018-02-11T08:06:11.302Z,95.10
2018-02-11T08:08:38.789Z,95.30
2018-02-11T08:11:07.114Z,95.50
2018-02-11T08:13:34.585Z,95.50
2018-02-11T08:16:02.102Z,95.70
2018-02-11T08:18:29.589Z,95.90
2018-02-11T08:20:57.101Z,96.00
2018-02-11T08:23:25.361Z,96.20
2018-02-11T08:25:52.855Z,96.20
2018-02-11T08:28:20.369Z,96.40
2018-02-11T08:30:47.856Z,96.30
2018-02-11T08:33:16.129Z,95.90
2018-02-11T08:35:43.621Z,95.90
2018-02-11T08:38:11.129Z,95.80
2018-02-11T08:40:38.664Z,95.80
2018-02-11T08:43:06.133Z,96.10
2018-02-11T08:45:33.641Z,95.80
2018-02-11T08:48:01.139Z,95.90
2018-02-11T08:50:28.650Z,96.20
2018-02-11T08:52:56.134Z,96.20
2018-02-11T08:55:23.641Z,96.40
2018-02-11T08:57:51.893Z,96.70
2018-02-11T09:00:19.378Z,96.50
2018-02-11T09:02:47.657Z,96.20
2018-02-11T09:05:15.909Z,96.60
2018-02-11T09:07:44.181Z,96.60
2018-02-11T09:10:11.672Z,96.60
2018-02-11T09:12:39.950Z,97.40
2018-02-11T09:15:08.207Z,97.90
2018-02-11T09:17:35.698Z,97.90
2018-02-11T09:20:03.214Z,98.80
2018-02-11T09:22:30.710Z,99.50
2018-02-11T09:24:58.221Z,99.90
2018-02-11T09:27:25.714Z,99.90
2018-02-11T09:29:53.990Z,99.90
2018-02-11T09:32:22.245Z,99.90
2018-02-11T09:34:49.747Z,99.90
2018-02-11T09:37:17.258Z,99.90
2018-02-11T09:39:44.791Z,99.90
2018-02-11T09:42:12.283Z,99.90
2018-02-11T09:44:39.774Z,99.90
2018-02-11T09:47:07.282Z,99.90
2018-02-11T09:49:34.804Z,99.90
2018-02-11T09:52:02.294Z,99.90
2018-02-11T09:54:29.807Z,99.90
2018-02-11T09:56:57.293Z,99.90
2018-02-11T09:59:24.801Z,99.90
2018-02-11T10:01:53.050Z,99.90
2018-02-11T10:04:20.557Z,99.90
2018-02-11T10:06:48.041Z,99.90
2018-02-11T10:09:15.526Z,99.90
2018-02-11T10:11:43.034Z,99.90
2018-02-11T10:14:10.530Z,99.90
2018-02-11T10:16:38.041Z,99.50
2018-02-11T10:19:05.529Z,99.80
2018-02-11T10:21:33.045Z,99.70
2018-02-11T10:24:01.293Z,99.50
2018-02-11T10:26:28.778Z,99.50
2018-02-11T10:28:57.050Z,99.40
2018-02-11T10:31:25.302Z,99.50
2018-02-11T10:33:52.814Z,99.50
2018-02-11T10:36:20.306Z,99.60
2018-02-11T10:38:47.818Z,99.60
2018-02-11T10:41:15.306Z,99.80
2018-02-11T10:43:42.790Z,99.70
2018-02-11T10:46:10.303Z,99.50
2018-02-11T10:48:37.790Z,99.70
2018-02-11T10:51:05.297Z,99.80
2018-02-11T10:53:33.546Z,99.40
2018-02-11T10:56:01.059Z,99.40
2018-02-11T10:58:28.549Z,99.90
2018-02-11T11:00:56.037Z,99.90
2018-02-11T11:03:23.545Z,99.90
2018-02-11T11:05:51.038Z,99.90
2018-02-11T11:08:18.550Z,99.90
2018-02-11T11:10:46.033Z,99.90
2018-02-11T11:13:13.522Z,99.90
2018-02-11T11:15:41.031Z,99.90
2018-02-11T11:18:08.517Z,99.90
2018-02-11T11:20:36.024Z,99.90
2018-02-11T11:23:03.516Z,99.90
2018-02-11T11:25:31.006Z,99.90
2018-02-11T11:27:58.521Z,99.90
2018-02-11T11:30:26.010Z,99.80
2018-02-11T11:32:53.528Z,99.50
2018-02-11T11:35:21.025Z,99.50
2018-02-11T11:37:48.509Z,99.40
2018-02-11T11:40:16.793Z,99.10
2018-02-11T11:42:45.048Z,99.20
2018-02-11T11:45:12.554Z,99.20
2018-02-11T11:47:40.041Z,99.00
2018-02-11T11:50:07.525Z,99.30
2018-02-11T11:52:35.038Z,99.20
2018-02-11T11:55:02.530Z,99.20
2018-02-11T11:57:30.046Z,99.90
2018-02-11T11:59:57.537Z,99.10
2018-02-11T12:02:25.021Z,98.80
2018-02-11T12:04:53.293Z,98.50
2018-02-11T12:07:20.782Z,98.50
2018-02-11T12:09:48.290Z,98.40
2018-02-11T12:12:15.778Z,98.50
2018-02-11T12:14:44.034Z,98.30
2018-02-11T12:17:11.543Z,98.30
2018-02-11T12:19:39.030Z,97.90
2018-02-11T12:22:06.533Z,97.60
2018-02-11T12:24:34.781Z,97.80
2018-02-11T12:27:02.266Z,97.80
2018-02-11T12:29:30.546Z,98.00
2018-02-11T12:31:58.798Z,98.20
2018-02-11T12:34:26.305Z,98.20
2018-02-11T12:36:53.802Z,98.10
2018-02-11T12:39:21.303Z,97.70
2018-02-11T12:41:49.582Z,97.90
2018-02-11T12:44:17.834Z,97.60
2018-02-11T12:46:45.342Z,97.60
2018-02-11T12:49:12.834Z,97.50
2018-02-11T12:51:40.330Z,97.70
2018-02-11T12:54:08.610Z,97.40
2018-02-11T12:56:36.102Z,97.30
2018-02-11T12:59:03.610Z,97.60
2018-02-11T13:01:31.868Z,97.70
2018-02-11T13:03:59.356Z,97.60
2018-02-11T13:06:27.687Z,97.50
2018-02-11T13:08:55.149Z,97.80
2018-02-11T13:11:22.663Z,97.50
2018-02-11T13:13:50.145Z,97.30
2018-02-11T13:16:17.658Z,97.20
2018-02-11T13:18:45.909Z,97.50
2018-02-11T13:21:13.398Z,97.50
2018-02-11T13:23:41.673Z,97.60
2018-02-11T13:26:09.978Z,97.50
2018-02-11T13:28:37.490Z,97.50
2018-02-11T13:31:05.746Z,97.70
2018-02-11T13:33:33.253Z,97.70
2018-02-11T13:36:00.742Z,97.60
2018-02-11T13:38:28.229Z,97.70
2018-02-11T13:40:55.737Z,97.70
2018-02-11T13:43:23.226Z,97.90
2018-02-11T13:45:50.733Z,98.00
2018-02-11T13:48:18.986Z,97.80
2018-02-11T13:50:48.005Z,97.70
2018-02-11T13:53:16.253Z,97.80
2018-02-11T13:55:43.738Z,97.80
2018-02-11T13:58:12.009Z,97.80
2018-02-11T14:00:40.261Z,97.90
2018-02-11T14:03:07.770Z,97.90
2018-02-11T14:05:35.257Z,97.80
2018-02-11T14:08:02.770Z,97.90
2018-02-11T14:10:30.259Z,97.70
2018-02-11T14:12:57.746Z,97.80
2018-02-11T14:15:25.252Z,97.80
2018-02-11T14:17:52.737Z,97.90
2018-02-11T14:20:20.246Z,97.80
2018-02-11T14:22:48.497Z,97.80
2018-02-11T14:25:15.990Z,97.80
2018-02-11T14:27:44.261Z,97.40
2018-02-11T14:30:12.518Z,97.40
2018-02-11T14:32:40.034Z,97.30
2018-02-11T14:35:07.529Z,97.30
2018-02-11T14:37:35.146Z,97.30
2018-02-11T14:40:02.634Z,97.20
2018-02-11T14:42:30.126Z,97.20
2018-02-11T14:44:58.397Z,97.30
2018-02-11T14:47:26.645Z,97.30
2018-02-11T14:49:54.163Z,97.30
2018-02-11T14:52:21.649Z,97.20
2018-02-11T14:54:49.157Z,97.30
2018-02-11T14:57:17.410Z,97.20
2018-02-11T14:59:44.897Z,97.20
2018-02-11T15:02:13.174Z,97.10
2018-02-11T15:04:41.430Z,96.90
2018-02-11T15:07:09.718Z,97.00
2018-02-11T15:09:37.969Z,96.90
2018-02-11T15:12:05.481Z,96.80
2018-02-11T15:14:32.970Z,96.80
2018-02-11T15:17:00.461Z,96.80
2018-02-11T15:19:28.745Z,96.70
2018-02-11T15:21:57.004Z,96.60
2018-02-11T15:24:24.514Z,96.60
2018-02-11T15:26:51.998Z,96.70
2018-02-11T15:29:19.486Z,97.00
2018-02-11T15:31:47.789Z,96.70
2018-02-11T15:34:15.270Z,97.00
2018-02-11T15:36:42.778Z,97.00
2018-02-11T15:39:11.132Z,96.80
2018-02-11T15:41:38.630Z,97.10
2018-02-11T15:44:06.910Z,97.00
2018-02-11T15:46:34.397Z,97.00
2018-02-11T15:49:01.911Z,97.30
2018-02-11T15:51:30.194Z,98.00
2018-02-11T15:53:58.470Z,97.70
2018-02-11T15:56:25.970Z,97.70
2018-02-11T15:58:53.477Z,97.60
2018-02-11T16:01:21.788Z,97.80
2018-02-11T16:03:49.329Z,97.70
2018-02-11T16:06:16.810Z,97.80
2018-02-11T16:08:44.298Z,97.80
2018-02-11T16:11:11.806Z,97.80
2018-02-11T16:13:40.061Z,98.20
2018-02-11T16:16:07.551Z,98.20
2018-02-11T16:18:35.066Z,98.40
2018-02-11T16:21:02.549Z,98.90
2018-02-11T16:23:30.825Z,99.90
2018-02-11T16:25:59.078Z,99.90
2018-02-11T16:28:26.590Z,99.90
2018-02-11T16:30:54.082Z,99.90
2018-02-11T16:33:21.585Z,99.90
2018-02-11T16:35:49.097Z,99.90
2018-02-11T16:38:16.594Z,99.90
2018-02-11T16:40:44.871Z,99.90
2018-02-11T16:43:12.373Z,99.90
2018-02-11T16:45:39.861Z,99.90
2018-02-11T16:48:08.138Z,99.90
2018-02-11T16:50:35.626Z,99.90
2018-02-11T16:53:03.138Z,99.90
2018-02-11T16:55:30.625Z,99.90
2018-02-11T16:57:58.878Z,99.90
2018-02-11T17:00:26.386Z,99.90
2018-02-11T17:02:53.877Z,99.90
2018-02-11T17:05:21.390Z,99.90
2018-02-11T17:07:49.641Z,99.90
2018-02-11T17:10:17.133Z,99.90
2018-02-11T17:12:44.646Z,99.90
2018-02-11T17:15:13.646Z,99.90
2018-02-11T17:17:42.676Z,99.90
2018-02-11T17:20:10.162Z,99.90
2018-02-11T17:22:37.649Z,99.90
2018-02-11T17:25:05.159Z,99.90
2018-02-11T17:27:32.645Z,99.90
2018-02-11T17:30:00.157Z,99.90
2018-02-11T17:32:28.421Z,99.90
2018-02-11T17:34:56.678Z,99.90
2018-02-11T17:37:25.753Z,99.90
2018-02-11T17:39:53.226Z,99.90
2018-02-11T17:42:20.734Z,99.90
2018-02-11T17:44:48.231Z,99.90
2018-02-11T17:47:15.718Z,99.90
2018-02-11T17:49:43.765Z,99.90
2018-02-11T17:52:11.258Z,99.90
2018-02-11T17:54:39.534Z,99.90
2018-02-11T17:57:07.790Z,99.90
2018-02-11T17:59:35.310Z,99.90
2018-02-11T18:02:02.807Z,99.90
2018-02-11T18:04:30.298Z,99.90
2018-02-11T18:06:57.805Z,99.90
2018-02-11T18:09:25.294Z,99.80
2018-02-11T18:11:53.569Z,99.90
2018-02-11T18:14:21.825Z,99.80
2018-02-11T18:16:49.313Z,99.70
2018-02-11T18:19:17.589Z,99.80
2018-02-11T18:21:45.845Z,99.60
2018-02-11T18:24:13.362Z,99.60
2018-02-11T18:26:40.854Z,99.60
2018-02-11T18:29:08.366Z,99.70
2018-02-11T18:31:35.862Z,99.40
2018-02-11T18:34:03.350Z,99.50
2018-02-11T18:36:31.626Z,99.50
2018-02-11T18:38:59.877Z,99.40
2018-02-11T18:41:27.408Z,99.40
2018-02-11T18:43:54.898Z,99.40
2018-02-11T18:46:22.414Z,99.30
2018-02-11T18:48:49.901Z,99.40
2018-02-11T18:51:17.393Z,99.10
2018-02-11T18:53:45.676Z,99.20
2018-02-11T18:56:13.926Z,99.10
2018-02-11T18:58:41.441Z,99.10
2018-02-11T19:01:08.938Z,99.10
2018-02-11T19:03:36.454Z,99.20
2018-02-11T19:06:03.951Z,99.10
2018-02-11T19:08:31.450Z,99.10
2018-02-11T19:10:59.738Z,99.10
2018-02-11T19:13:27.225Z,99.10
2018-02-11T19:15:54.734Z,99.00
2018-02-11T19:18:22.998Z,99.00
2018-02-11T19:20:50.514Z,99.00
2018-02-11T19:23:18.002Z,99.10
2018-02-11T19:25:45.498Z,99.20
2018-02-11T19:28:13.005Z,99.10
2018-02-11T19:30:40.489Z,99.00
2018-02-11T19:33:08.006Z,99.10
2018-02-11T19:35:35.494Z,99.20
2018-02-11T19:38:03.010Z,98.80
2018-02-11T19:40:30.502Z,98.80
2018-02-11T19:42:57.989Z,98.80
2018-02-11T19:45:26.269Z,98.90
2018-02-11T19:47:54.522Z,98.90
2018-02-11T19:50:22.042Z,98.80
2018-02-11T19:52:49.529Z,99.10
2018-02-11T19:55:17.046Z,98.90
2018-02-11T19:57:44.542Z,98.90
2018-02-11T20:00:12.034Z,98.70
2018-02-11T20:02:40.309Z,98.60
2018-02-11T20:05:08.566Z,98.70
2018-02-11T20:07:36.100Z,98.60
2018-02-11T20:10:03.599Z,98.70
2018-02-11T20:12:31.891Z,98.80
2018-02-11T20:15:00.150Z,98.80
2018-02-11T20:17:28.410Z,98.80
2018-02-11T20:19:55.921Z,98.80
2018-02-11T20:22:23.410Z,98.80
2018-02-11T20:24:50.930Z,98.80
2018-02-11T20:27:18.421Z,98.90
2018-02-11T20:29:45.934Z,98.90
2018-02-11T20:32:13.430Z,98.90
2018-02-11T20:34:40.918Z,99.00
2018-02-11T20:37:08.434Z,99.00
2018-02-11T20:39:35.930Z,99.00
2018-02-11T20:42:03.443Z,99.00
2018-02-11T20:44:30.930Z,99.20
2018-02-11T20:46:58.449Z,99.20
2018-02-11T20:49:25.941Z,99.20
2018-02-11T20:51:53.429Z,99.20
2018-02-11T20:54:22.497Z,99.50
2018-02-11T20:56:49.970Z,99.50
2018-02-11T20:59:17.485Z,99.10
2018-02-11T21:01:44.972Z,99.10
2018-02-11T21:04:12.493Z,99.10
2018-02-11T21:06:39.981Z,99.10
2018-02-11T21:09:07.470Z,99.10
2018-02-11T21:11:34.983Z,99.10
2018-02-11T21:14:02.478Z,99.10
2018-02-11T21:16:29.994Z,99.30
2018-02-11T21:18:57.486Z,99.20
2018-02-11T21:21:24.998Z,99.30
2018-02-11T21:23:52.491Z,99.30
2018-02-11T21:26:19.982Z,99.30
2018-02-11T21:28:48.262Z,99.30
2018-02-11T21:31:15.749Z,99.30
2018-02-11T21:33:43.290Z,99.40
2018-02-11T21:36:11.545Z,99.40
2018-02-11T21:38:39.061Z,99.40
2018-02-11T21:41:06.554Z,99.40
2018-02-11T21:43:34.042Z,99.40
2018-02-11T21:46:02.318Z,99.40
2018-02-11T21:48:30.569Z,99.40
2018-02-11T21:50:58.094Z,99.40
2018-02-11T21:53:25.585Z,99.40
2018-02-11T21:55:53.094Z,99.40
2018-02-11T21:58:20.582Z,99.40
2018-02-11T22:00:48.069Z,99.40
2018-02-11T22:03:15.577Z,99.40
2018-02-11T22:05:43.062Z,99.50
2018-02-11T22:08:10.574Z,99.30
2018-02-11T22:10:38.065Z,99.30
2018-02-11T22:13:05.553Z,99.30
2018-02-11T22:15:33.065Z,99.40
2018-02-11T22:18:00.561Z,99.20
2018-02-11T22:20:28.075Z,99.20
2018-02-11T22:22:55.561Z,99.20
2018-02-11T22:25:23.047Z,99.30
2018-02-11T22:27:50.557Z,99.20
2018-02-11T22:30:18.046Z,99.20
2018-02-11T22:32:45.566Z,99.20
2018-02-11T22:35:13.065Z,99.30
2018-02-11T22:37:40.553Z,99.20
2018-02-11T22:40:08.830Z,99.40
2018-02-11T22:42:37.086Z,99.50
2018-02-11T22:45:04.598Z,99.50
2018-02-11T22:47:32.085Z,99.50
2018-02-11T22:49:59.574Z,99.50
2018-02-11T22:52:27.086Z,99.50
2018-02-11T22:54:54.603Z,99.50
2018-02-11T22:57:22.878Z,99.60
2018-02-11T23:02:18.629Z,99.50
2018-02-11T23:04:46.137Z,99.60
2018-02-11T23:07:13.629Z,99.60
2018-02-11T23:09:41.902Z,99.60
2018-02-11T23:12:10.153Z,99.80
2018-02-11T23:14:37.670Z,99.80
2018-02-11T23:17:05.190Z,99.90
2018-02-11T23:19:45.313Z,99.90
2018-02-11T23:22:12.806Z,99.60
2018-02-11T23:24:41.085Z,99.60
2018-02-11T23:27:09.348Z,99.70
2018-02-11T23:29:38.345Z,99.60
2018-02-11T23:32:05.854Z,99.60
2018-02-11T23:34:33.347Z,99.70
2018-02-11T23:37:00.857Z,99.70
2018-02-11T23:39:28.345Z,99.70
2018-02-11T23:41:55.857Z,99.70
2018-02-11T23:44:24.118Z,99.60
2018-02-11T23:46:52.369Z,99.70
2018-02-11T23:49:19.882Z,99.60
2018-02-11T23:51:47.369Z,99.60
2018-02-11T23:54:14.878Z,99.70
2018-02-11T23:56:43.130Z,99.70
2018-02-11T23:59:10.637Z,99.70
